Kousin Maru No.15 — JL6689 — position and weather

sailwx.info

Track history (hours):
 
Tides and Currents Weather Stations Pressure Air Temp Water Temp Dewpoint Dewpoint Depression Visibility Wind Speed Wind Dir Waves Ship Positions

Kousin Maru No.15

Last reported at 2018-Jan-20 05:57 UTC. Time now 2018-Jan-23 11:56 UTC.
Position N 33°18' E 131°48'.

Length 63 m; draft 4.1 m.

Type: Tanker. MMSI: 431501727.

Date/timePositionNaut miles runAvg speedWind from/ knotsBaromVisibWave heightAir tempDewpointWater temp
2018-Jan-20 05:57N 33°18' E 131°48'2 0.7
2018-Jan-20 03:15N 33°16' E 131°47'312.6
2018-Jan-20 03:01N 33°19' E 131°47'713.3
2018-Jan-20 02:30N 33°26' E 131°48'612.7
2018-Jan-20 02:00N 33°32' E 131°48'612.9
2018-Jan-20 01:30N 33°38' E 131°47'712.7
2018-Jan-20 01:00N 33°45' E 131°46'612.7
2018-Jan-20 00:30N 33°51' E 131°46'613.0
2018-Jan-20 00:00N 33°57' E 131°45'5 7.7
2018-Jan-19 23:24N 34°02' E 131°46'0 0.1
2018-Jan-19 23:01N 34°02' E 131°46'0 0.0
2018-Jan-19 21:23N 34°02' E 131°46'0 0.0
2018-Jan-19 20:59N 34°02' E 131°46'0 0.0
2018-Jan-19 20:17N 34°02' E 131°46'0 0.0
2018-Jan-19 19:53N 34°02' E 131°46'0 0.0
2018-Jan-19 19:05N 34°02' E 131°46'0 0.0
2018-Jan-19 18:59N 34°02' E 131°46'0 0.0
2018-Jan-19 18:29N 34°02' E 131°46'0 0.0
2018-Jan-19 17:59N 34°02' E 131°46'0 0.0
2018-Jan-19 17:23N 34°02' E 131°46'0 0.0
2018-Jan-19 15:11N 34°02' E 131°46'0 0.0
2018-Jan-19 14:59N 34°02' E 131°46'2 4.1
2018-Jan-19 14:30N 34°00' E 131°45'611.6
2018-Jan-19 14:00N 33°58' E 131°39'713.4
2018-Jan-19 13:30N 33°56' E 131°31'713.2
2018-Jan-19 13:00N 33°54' E 131°23'612.9
2018-Jan-19 12:30N 33°52' E 131°16'612.2
2018-Jan-19 11:59N 33°55' E 131°09'612.7
2018-Jan-19 11:30N 33°58' E 131°02'5 9.6
2018-Jan-19 11:00N 33°57' E 130°57'4 7.8
2018-Jan-19 10:31N 33°56' E 130°52'613.0
2018-Jan-19 10:01N 33°58' E 130°45'713.3
2018-Jan-19 09:30N 33°57' E 130°36'612.9
2018-Jan-19 09:01N 33°55' E 130°29'612.9
2018-Jan-19 08:30N 33°50' E 130°24'713.2
2018-Jan-19 08:00N 33°45' E 130°19'611.2
2018-Jan-19 07:30N 33°40' E 130°16'612.9
2018-Jan-19 07:00N 33°37' E 130°23'1 2.3
2018-Jan-19 06:30N 33°37' E 130°25'0 0.1
2018-Jan-19 05:59N 33°37' E 130°25'0 0.1
2018-Jan-19 05:29N 33°37' E 130°25'0 0.0
2018-Jan-19 04:59N 33°37' E 130°25'0 0.0
2018-Jan-19 04:29N 33°37' E 130°25'1 2.2
2018-Jan-19 04:00N 33°37' E 130°23'510.0
2018-Jan-19 03:30N 33°39' E 130°18'612.1
2018-Jan-19 03:00N 33°40' E 130°11'712.9
2018-Jan-19 02:29N 33°36' E 130°04'9 2.2
2018-Jan-18 22:23N 33°29' E 129°57'0 0.0
2018-Jan-18 21:53N 33°29' E 129°57'0 0.0
2018-Jan-18 21:17N 33°29' E 129°57'4 6.6
2018-Jan-18 20:40N 33°32' E 129°60'210.3
2018-Jan-18 20:30N 33°33' E 129°58'  
Track history (hours):
 
Tides and Currents Weather Stations Pressure Air Temp Water Temp Dewpoint Dewpoint Depression Visibility Wind Speed Wind Dir Waves Ship Positions

Kousin Maru No.15

Last reported at 2018-Jan-20 05:57 UTC. Time now 2018-Jan-23 11:56 UTC.
Position N 33°18' E 131°48'.

Length 63 m; draft 4.1 m.

Type: Tanker. MMSI: 431501727.

Date/timePositionNaut miles runAvg speedWind from/ knotsBaromVisibWave heightAir tempDewpointWater temp
2018-Jan-20 05:57N 33°18' E 131°48'2 0.7
2018-Jan-20 03:15N 33°16' E 131°47'312.6
2018-Jan-20 03:01N 33°19' E 131°47'713.3
2018-Jan-20 02:30N 33°26' E 131°48'612.7
2018-Jan-20 02:00N 33°32' E 131°48'612.9
2018-Jan-20 01:30N 33°38' E 131°47'712.7
2018-Jan-20 01:00N 33°45' E 131°46'612.7
2018-Jan-20 00:30N 33°51' E 131°46'613.0
2018-Jan-20 00:00N 33°57' E 131°45'5 7.7
2018-Jan-19 23:24N 34°02' E 131°46'0 0.1
2018-Jan-19 23:01N 34°02' E 131°46'0 0.0
2018-Jan-19 21:23N 34°02' E 131°46'0 0.0
2018-Jan-19 20:59N 34°02' E 131°46'0 0.0
2018-Jan-19 20:17N 34°02' E 131°46'0 0.0
2018-Jan-19 19:53N 34°02' E 131°46'0 0.0
2018-Jan-19 19:05N 34°02' E 131°46'0 0.0
2018-Jan-19 18:59N 34°02' E 131°46'0 0.0
2018-Jan-19 18:29N 34°02' E 131°46'0 0.0
2018-Jan-19 17:59N 34°02' E 131°46'0 0.0
2018-Jan-19 17:23N 34°02' E 131°46'0 0.0
2018-Jan-19 15:11N 34°02' E 131°46'0 0.0
2018-Jan-19 14:59N 34°02' E 131°46'2 4.1
2018-Jan-19 14:30N 34°00' E 131°45'611.6
2018-Jan-19 14:00N 33°58' E 131°39'713.4
2018-Jan-19 13:30N 33°56' E 131°31'713.2
2018-Jan-19 13:00N 33°54' E 131°23'612.9
2018-Jan-19 12:30N 33°52' E 131°16'612.2
2018-Jan-19 11:59N 33°55' E 131°09'612.7
2018-Jan-19 11:30N 33°58' E 131°02'5 9.6
2018-Jan-19 11:00N 33°57' E 130°57'4 7.8
2018-Jan-19 10:31N 33°56' E 130°52'613.0
2018-Jan-19 10:01N 33°58' E 130°45'713.3
2018-Jan-19 09:30N 33°57' E 130°36'612.9
2018-Jan-19 09:01N 33°55' E 130°29'612.9
2018-Jan-19 08:30N 33°50' E 130°24'713.2
2018-Jan-19 08:00N 33°45' E 130°19'611.2
2018-Jan-19 07:30N 33°40' E 130°16'612.9
2018-Jan-19 07:00N 33°37' E 130°23'1 2.3
2018-Jan-19 06:30N 33°37' E 130°25'0 0.1
2018-Jan-19 05:59N 33°37' E 130°25'0 0.1
2018-Jan-19 05:29N 33°37' E 130°25'0 0.0
2018-Jan-19 04:59N 33°37' E 130°25'0 0.0
2018-Jan-19 04:29N 33°37' E 130°25'1 2.2
2018-Jan-19 04:00N 33°37' E 130°23'510.0
2018-Jan-19 03:30N 33°39' E 130°18'612.1
2018-Jan-19 03:00N 33°40' E 130°11'712.9
2018-Jan-19 02:29N 33°36' E 130°04'9 2.2
2018-Jan-18 22:23N 33°29' E 129°57'0 0.0
2018-Jan-18 21:53N 33°29' E 129°57'0 0.0
2018-Jan-18 21:17N 33°29' E 129°57'4 6.6
2018-Jan-18 20:40N 33°32' E 129°60'210.3
2018-Jan-18 20:30N 33°33' E 129°58'  

Dump ship's entire track history